Time;durP1;ratioP1;P1;durP2;ratioP2;P2;SDS_P1;SDS_P2;PMS_P1;PMS_P2;Temp;Humidity;BMP_temperature;BMP_pressure;BME280_temperature;BME280_humidity;BME280_pressure;Samples;Min_cycle;Max_cycle;Signal;HPM_P1;HPM_P2
2021/01/07 00:02:01;;;;;;;12.77;6.55;;;4.90;99.90;;;;;;5103710;28;20051;-73
2021/01/07 00:04:28;;;;;;;13.38;6.90;;;4.60;99.90;;;;;;5103939;28;20043;-73
2021/01/07 00:06:55;;;;;;;12.90;6.90;;;4.60;99.90;;;;;;5102838;28;20100;-73
2021/01/07 00:09:22;;;;;;;17.13;7.55;;;4.60;99.90;;;;;;5102905;28;20566;-74
2021/01/07 00:11:51;;;;;;;14.23;6.68;;;4.60;99.90;;;;;;5102647;28;20040;-74
2021/01/07 00:14:19;;;;;;;12.30;7.07;;;4.50;99.90;;;;;;5102516;28;20596;-73
2021/01/07 00:16:46;;;;;;;15.23;7.20;;;4.50;99.90;;;;;;5098846;28;20059;-73
2021/01/07 00:19:16;;;;;;;14.82;7.45;;;4.50;99.90;;;;;;5100021;28;20426;-73
2021/01/07 00:21:42;;;;;;;12.52;6.80;;;4.50;99.90;;;;;;5100368;28;20058;-74
2021/01/07 00:24:09;;;;;;;13.98;6.88;;;4.50;99.90;;;;;;5101258;28;20071;-72
2021/01/07 00:26:36;;;;;;;15.38;7.38;;;4.80;99.90;;;;;;5104574;28;20074;-73
2021/01/07 00:29:03;;;;;;;14.80;7.28;;;4.50;99.90;;;;;;5104889;28;20136;-75
2021/01/07 00:31:29;;;;;;;17.40;7.85;;;4.70;99.90;;;;;;5100069;28;20044;-77
2021/01/07 00:33:56;;;;;;;17.30;8.07;;;4.60;99.90;;;;;;5106156;28;20048;-79
2021/01/07 00:36:23;;;;;;;12.23;6.57;;;4.70;99.90;;;;;;5103456;28;20051;-75
2021/01/07 00:38:49;;;;;;;15.90;7.55;;;4.50;99.90;;;;;;5097674;28;20047;-77
2021/01/07 00:41:18;;;;;;;15.57;7.72;;;4.50;99.90;;;;;;5104761;28;20043;-78
2021/01/07 00:43:45;;;;;;;15.70;7.85;;;4.50;99.90;;;;;;5102586;28;20048;-76
2021/01/07 00:46:12;;;;;;;17.05;8.73;;;4.50;99.90;;;;;;5105132;28;20046;-77
2021/01/07 00:48:38;;;;;;;14.05;7.53;;;4.40;99.90;;;;;;5111289;28;20046;-77
2021/01/07 00:51:06;;;;;;;15.88;7.93;;;4.60;99.90;;;;;;5099944;27;20039;-78
2021/01/07 00:53:33;;;;;;;15.63;7.68;;;4.50;99.90;;;;;;5112472;28;20047;-77
2021/01/07 00:56:00;;;;;;;13.65;7.10;;;4.50;99.90;;;;;;5109543;28;20467;-77
2021/01/07 00:58:26;;;;;;;15.10;7.90;;;4.40;99.90;;;;;;5110513;27;20152;-78
2021/01/07 01:00:53;;;;;;;15.45;7.45;;;4.60;99.90;;;;;;5109981;28;20109;-78
2021/01/07 01:03:21;;;;;;;14.38;7.55;;;4.40;99.90;;;;;;5112520;27;20051;-76
2021/01/07 01:05:51;;;;;;;14.38;7.45;;;4.60;99.90;;;;;;5112315;28;20047;-77
2021/01/07 01:08:20;;;;;;;17.48;8.05;;;4.40;99.90;;;;;;5106792;28;20055;-78
2021/01/07 01:10:47;;;;;;;14.32;8.00;;;4.40;99.90;;;;;;5112528;28;20068;-76
2021/01/07 01:13:14;;;;;;;17.90;8.25;;;4.40;99.90;;;;;;5112063;28;20103;-77
2021/01/07 01:15:41;;;;;;;18.75;7.63;;;4.40;99.90;;;;;;5110118;27;20471;-77
2021/01/07 01:18:10;;;;;;;16.05;7.35;;;4.40;99.90;;;;;;5108957;27;20069;-79
2021/01/07 01:20:36;;;;;;;15.63;7.75;;;4.40;99.90;;;;;;5107181;28;20079;-77
2021/01/07 01:23:06;;;;;;;15.50;7.93;;;4.40;99.90;;;;;;5105259;27;20054;-78
2021/01/07 01:25:33;;;;;;;14.87;6.80;;;4.40;99.90;;;;;;5109145;28;20466;-80
2021/01/07 01:27:59;;;;;;;14.38;7.43;;;4.40;99.90;;;;;;5107963;28;20372;-77
2021/01/07 01:30:26;;;;;;;15.80;7.68;;;4.70;99.90;;;;;;5105008;27;20052;-77
2021/01/07 01:32:53;;;;;;;16.73;7.95;;;4.40;99.90;;;;;;5111876;28;20044;-76
2021/01/07 01:35:22;;;;;;;16.30;8.07;;;4.40;99.90;;;;;;5102401;27;20079;-77
2021/01/07 01:37:49;;;;;;;16.83;8.63;;;4.70;99.90;;;;;;5105546;28;20198;-77
2021/01/07 01:40:15;;;;;;;16.33;8.35;;;4.70;99.90;;;;;;5108790;28;20044;-77
2021/01/07 01:42:46;;;;;;;15.40;7.70;;;4.50;99.90;;;;;;5109872;28;20386;-77
2021/01/07 01:45:13;;;;;;;17.13;8.75;;;4.40;99.90;;;;;;5109690;28;20067;-78
2021/01/07 01:47:41;;;;;;;14.48;7.90;;;4.70;99.90;;;;;;5107514;28;20393;-77
2021/01/07 01:50:09;;;;;;;16.45;8.15;;;4.50;99.90;;;;;;5105180;27;20054;-77
2021/01/07 01:52:36;;;;;;;17.83;8.75;;;4.70;99.90;;;;;;5107375;28;20044;-78
2021/01/07 01:55:04;;;;;;;17.08;7.53;;;4.50;99.90;;;;;;5108781;28;20051;-77
2021/01/07 01:57:32;;;;;;;13.48;7.45;;;4.50;99.90;;;;;;5111190;28;20112;-77
2021/01/07 01:59:59;;;;;;;20.35;7.90;;;4.50;99.90;;;;;;5102865;27;20498;-75
2021/01/07 02:02:26;;;;;;;16.45;8.02;;;4.40;99.90;;;;;;5096827;28;20397;-77
2021/01/07 02:04:52;;;;;;;15.30;7.68;;;4.50;99.90;;;;;;5106922;28;20071;-77
2021/01/07 02:07:21;;;;;;;17.42;8.10;;;4.50;99.90;;;;;;5101701;27;20043;-77
2021/01/07 02:09:48;;;;;;;16.90;8.15;;;4.70;99.90;;;;;;5097597;28;20079;-78
2021/01/07 02:12:16;;;;;;;16.83;7.72;;;4.80;99.90;;;;;;5103846;28;20140;-77
2021/01/07 02:14:43;;;;;;;14.88;7.53;;;4.70;99.90;;;;;;5108002;27;20036;-78
2021/01/07 02:17:11;;;;;;;17.70;7.75;;;4.50;99.90;;;;;;5111384;28;20069;-77
2021/01/07 02:19:38;;;;;;;18.00;8.18;;;4.50;99.90;;;;;;5104804;28;20047;-75
2021/01/07 02:22:05;;;;;;;18.30;7.78;;;4.50;99.90;;;;;;5107430;28;20048;-77
2021/01/07 02:24:35;;;;;;;15.10;7.97;;;4.60;99.90;;;;;;5108377;28;20454;-78
2021/01/07 02:27:13;;;;;;;17.23;7.57;;;4.70;99.90;;;;;;5105398;28;20052;-78
2021/01/07 02:29:40;;;;;;;15.65;7.70;;;4.60;99.90;;;;;;5104668;28;20051;-78
2021/01/07 02:32:09;;;;;;;15.77;8.68;;;4.70;99.90;;;;;;5106813;27;20642;-78
2021/01/07 02:34:36;;;;;;;19.10;8.85;;;4.60;99.90;;;;;;5107415;27;20424;-77
2021/01/07 02:37:05;;;;;;;18.65;8.63;;;4.50;99.90;;;;;;5100827;28;20052;-77
2021/01/07 02:39:32;;;;;;;17.08;7.70;;;4.60;99.90;;;;;;5103834;28;20047;-77
2021/01/07 02:41:58;;;;;;;15.93;7.85;;;4.60;99.90;;;;;;5106900;28;20379;-77
2021/01/07 02:44:25;;;;;;;17.02;8.35;;;4.60;99.90;;;;;;5108979;27;20055;-78
2021/01/07 02:46:53;;;;;;;17.52;8.70;;;4.60;99.90;;;;;;5097660;28;20056;-77
2021/01/07 02:49:19;;;;;;;18.40;9.02;;;4.50;99.90;;;;;;5108353;28;20055;-78
2021/01/07 02:51:46;;;;;;;16.40;8.80;;;4.40;99.90;;;;;;5107678;28;20117;-75
2021/01/07 02:54:13;;;;;;;18.05;9.27;;;4.30;99.90;;;;;;5109306;28;20199;-77
2021/01/07 02:56:39;;;;;;;18.65;8.75;;;4.50;99.90;;;;;;5108268;28;20078;-77
2021/01/07 02:59:06;;;;;;;18.02;8.43;;;4.70;99.90;;;;;;5102343;28;20066;-79
2021/01/07 03:01:32;;;;;;;19.15;8.75;;;4.50;99.90;;;;;;5108297;27;20048;-77
2021/01/07 03:03:59;;;;;;;19.02;7.95;;;4.70;99.90;;;;;;5106400;27;20475;-76
2021/01/07 03:06:26;;;;;;;16.60;8.52;;;4.40;99.90;;;;;;5100047;28;20051;-76
2021/01/07 03:08:52;;;;;;;16.90;8.70;;;4.40;99.90;;;;;;5108410;28;20050;-76
2021/01/07 03:11:19;;;;;;;17.20;8.55;;;4.70;99.90;;;;;;5109440;28;20359;-77
2021/01/07 03:13:48;;;;;;;18.05;8.90;;;4.40;99.90;;;;;;5108190;28;20136;-80
2021/01/07 03:16:16;;;;;;;17.40;8.10;;;4.40;99.90;;;;;;5095853;28;20050;-77
2021/01/07 03:18:42;;;;;;;15.48;8.13;;;4.40;99.90;;;;;;5108865;27;20055;-79
2021/01/07 03:21:09;;;;;;;17.45;8.60;;;4.20;99.90;;;;;;5107068;28;20043;-76
2021/01/07 03:23:35;;;;;;;19.15;8.27;;;4.20;99.90;;;;;;5106480;28;20055;-77
2021/01/07 03:26:02;;;;;;;15.32;7.50;;;4.50;99.90;;;;;;5108158;28;20378;-78
2021/01/07 03:28:28;;;;;;;16.83;8.77;;;4.40;99.90;;;;;;5105518;28;20054;-78
2021/01/07 03:30:56;;;;;;;16.55;7.75;;;4.60;99.90;;;;;;5104613;27;20074;-77
2021/01/07 03:33:22;;;;;;;17.25;7.32;;;4.40;99.90;;;;;;5107334;28;20492;-77
2021/01/07 03:35:48;;;;;;;17.65;8.68;;;4.40;99.90;;;;;;5101985;28;20044;-77
2021/01/07 03:38:16;;;;;;;14.77;7.88;;;4.50;99.90;;;;;;5107587;27;20044;-75
2021/01/07 03:40:42;;;;;;;17.77;8.45;;;4.50;99.90;;;;;;5103672;28;20052;-77
2021/01/07 03:43:08;;;;;;;18.20;8.48;;;4.40;99.90;;;;;;5104527;28;20047;-77
2021/01/07 03:45:35;;;;;;;18.08;9.02;;;4.20;99.90;;;;;;5107207;28;20513;-76
2021/01/07 03:48:01;;;;;;;19.45;8.80;;;4.50;99.90;;;;;;5102979;28;20272;-77
2021/01/07 03:50:28;;;;;;;19.65;9.38;;;4.30;99.90;;;;;;5102078;28;20108;-79
2021/01/07 03:52:54;;;;;;;18.63;8.82;;;4.30;99.90;;;;;;5102730;28;20073;-78
2021/01/07 03:55:20;;;;;;;17.38;9.18;;;4.30;99.90;;;;;;5103582;28;20043;-74
2021/01/07 03:57:47;;;;;;;17.38;9.55;;;4.20;99.90;;;;;;5110007;28;20436;-79
2021/01/07 04:00:13;;;;;;;18.95;9.57;;;4.40;99.90;;;;;;5101204;28;20043;-74
2021/01/07 04:02:40;;;;;;;19.55;9.65;;;4.40;99.90;;;;;;5103492;28;20464;-77
2021/01/07 04:05:07;;;;;;;17.70;9.38;;;4.30;99.90;;;;;;5107560;28;20051;-77
2021/01/07 04:07:33;;;;;;;20.23;10.35;;;4.50;99.90;;;;;;5106413;28;20186;-77
2021/01/07 04:09:59;;;;;;;18.90;9.88;;;4.30;99.90;;;;;;5105728;28;20096;-74
2021/01/07 04:12:26;;;;;;;20.63;10.18;;;4.30;99.90;;;;;;5103265;28;20051;-76
2021/01/07 04:15:01;;;;;;;20.70;10.25;;;4.30;99.90;;;;;;5103696;28;20042;-77
2021/01/07 04:17:27;;;;;;;20.48;10.02;;;4.30;99.90;;;;;;5107535;28;20044;-78
2021/01/07 04:19:54;;;;;;;20.50;10.13;;;4.70;99.90;;;;;;5104076;28;20044;-78
2021/01/07 04:22:20;;;;;;;22.60;11.80;;;4.30;99.90;;;;;;5111762;27;20394;-80
2021/01/07 04:24:46;;;;;;;19.02;9.55;;;4.20;99.90;;;;;;5112355;28;20047;-76
2021/01/07 04:27:13;;;;;;;21.30;10.38;;;4.30;99.90;;;;;;5107503;27;20129;-76
2021/01/07 04:29:39;;;;;;;18.15;9.52;;;4.30;99.90;;;;;;5106643;28;20063;-78
2021/01/07 04:32:06;;;;;;;19.50;9.93;;;4.20;99.90;;;;;;5109089;28;20047;-75
2021/01/07 04:34:32;;;;;;;18.88;10.18;;;4.20;99.90;;;;;;5108973;28;20095;-77
2021/01/07 04:36:59;;;;;;;19.50;9.93;;;4.20;99.90;;;;;;5112384;28;20066;-80
2021/01/07 04:39:25;;;;;;;17.95;9.73;;;4.20;99.90;;;;;;5104478;28;20094;-77
2021/01/07 04:41:51;;;;;;;18.98;9.32;;;4.20;99.90;;;;;;5109159;28;20074;-76
2021/01/07 04:44:19;;;;;;;15.23;8.18;;;4.20;99.90;;;;;;5110507;28;20560;-77
2021/01/07 04:46:46;;;;;;;17.45;9.00;;;4.10;99.90;;;;;;5108474;28;20048;-78
2021/01/07 04:49:14;;;;;;;17.63;8.98;;;4.00;99.90;;;;;;5103896;28;20497;-80
2021/01/07 04:51:40;;;;;;;19.67;8.65;;;4.10;99.90;;;;;;5110015;27;20040;-77
2021/01/07 04:54:07;;;;;;;18.25;8.88;;;4.10;99.90;;;;;;5110592;27;20044;-76
2021/01/07 04:56:34;;;;;;;14.73;8.13;;;4.20;99.90;;;;;;5112246;28;20056;-78
2021/01/07 04:59:00;;;;;;;20.10;9.43;;;4.20;99.90;;;;;;5107377;28;20059;-79
2021/01/07 05:01:27;;;;;;;17.65;9.00;;;4.00;99.90;;;;;;5102537;28;20060;-77
2021/01/07 05:03:55;;;;;;;16.08;8.55;;;4.20;99.90;;;;;;5106538;28;20096;-77
2021/01/07 05:06:25;;;;;;;15.75;7.68;;;4.00;99.90;;;;;;5109224;28;20056;-78
2021/01/07 05:09:06;;;;;;;17.63;8.68;;;4.00;99.90;;;;;;5111771;28;20051;-77
2021/01/07 05:11:34;;;;;;;18.65;9.05;;;4.10;99.90;;;;;;5105802;27;20063;-76
2021/01/07 05:14:02;;;;;;;19.85;8.82;;;4.20;99.90;;;;;;5109887;28;20056;-75
2021/01/07 05:16:29;;;;;;;22.13;9.55;;;3.90;99.90;;;;;;5109227;28;20047;-79
2021/01/07 05:18:56;;;;;;;18.40;9.07;;;4.00;99.90;;;;;;5110496;28;20528;-78
2021/01/07 05:21:23;;;;;;;18.05;8.93;;;4.00;99.90;;;;;;5112843;28;20101;-77
2021/01/07 05:23:51;;;;;;;19.83;8.25;;;4.00;99.90;;;;;;5106975;27;20105;-77
2021/01/07 05:26:19;;;;;;;24.63;9.52;;;4.00;99.90;;;;;;5111879;27;20082;-77
2021/01/07 05:28:50;;;;;;;18.33;9.02;;;3.90;99.90;;;;;;5108417;28;20052;-79
2021/01/07 05:31:25;;;;;;;19.90;8.93;;;4.20;99.90;;;;;;5108297;27;20052;-77
2021/01/07 05:33:53;;;;;;;19.02;8.95;;;4.00;99.90;;;;;;5111095;28;20532;-76
2021/01/07 05:36:30;;;;;;;21.88;10.27;;;4.00;99.90;;;;;;5105954;28;20120;-77
2021/01/07 05:39:06;;;;;;;19.52;9.63;;;3.80;99.90;;;;;;5109431;28;20055;-75
2021/01/07 05:41:36;;;;;;;16.42;8.88;;;4.00;99.90;;;;;;5106695;28;20051;-77
2021/01/07 05:44:08;;;;;;;20.38;9.75;;;4.00;99.90;;;;;;5108701;28;20069;-75
2021/01/07 05:46:35;;;;;;;21.23;10.20;;;4.00;99.90;;;;;;5108248;28;20352;-78
2021/01/07 05:49:03;;;;;;;21.65;10.27;;;4.00;99.90;;;;;;5108752;27;20047;-78
2021/01/07 05:51:30;;;;;;;19.50;9.18;;;4.20;99.90;;;;;;5111135;27;20096;-79
2021/01/07 05:54:00;;;;;;;17.80;8.65;;;4.00;99.90;;;;;;5110758;28;20048;-79
2021/01/07 05:56:28;;;;;;;19.70;9.65;;;4.00;99.90;;;;;;5122580;27;20051;-79
2021/01/07 05:58:55;;;;;;;20.33;9.73;;;4.00;99.90;;;;;;5108662;28;20097;-77
2021/01/07 06:01:23;;;;;;;21.45;9.90;;;4.20;99.90;;;;;;5100937;28;20052;-80
2021/01/07 06:03:54;;;;;;;23.20;9.77;;;4.00;99.90;;;;;;5106995;28;20054;-76
2021/01/07 06:06:22;;;;;;;17.80;9.50;;;4.00;99.90;;;;;;5106103;28;20055;-77
2021/01/07 06:08:50;;;;;;;22.60;10.25;;;4.20;99.90;;;;;;5111027;28;20048;-76
2021/01/07 06:11:17;;;;;;;22.38;10.73;;;3.90;99.90;;;;;;5107639;27;20523;-76
2021/01/07 06:13:46;;;;;;;19.85;9.90;;;4.00;99.90;;;;;;5110328;28;20116;-77
2021/01/07 06:16:18;;;;;;;20.00;10.25;;;4.00;99.90;;;;;;5107255;28;20375;-77
2021/01/07 06:18:45;;;;;;;22.75;9.82;;;4.00;99.90;;;;;;5110000;28;20056;-80
2021/01/07 06:21:13;;;;;;;20.55;9.45;;;4.10;99.90;;;;;;5111300;28;20120;-77
2021/01/07 06:23:47;;;;;;;18.90;9.32;;;4.00;99.90;;;;;;5109268;27;20079;-77
2021/01/07 06:26:17;;;;;;;23.90;10.25;;;4.00;99.90;;;;;;5108216;27;20044;-77
2021/01/07 06:28:55;;;;;;;18.55;9.45;;;3.90;99.90;;;;;;5108105;28;20499;-78
2021/01/07 06:31:42;;;;;;;35.95;10.57;;;4.00;99.90;;;;;;5104841;28;20112;-79
2021/01/07 06:34:12;;;;;;;25.00;10.63;;;4.10;99.90;;;;;;5109630;28;20048;-77
2021/01/07 06:36:39;;;;;;;20.48;10.50;;;3.90;99.90;;;;;;5108017;28;20044;-78
2021/01/07 06:39:06;;;;;;;23.70;10.55;;;4.00;99.90;;;;;;5107323;27;20108;-75
2021/01/07 06:41:33;;;;;;;23.60;9.93;;;4.20;99.90;;;;;;5120706;27;20043;-79
2021/01/07 06:44:02;;;;;;;23.13;10.40;;;4.00;99.90;;;;;;5108279;28;20455;-78
2021/01/07 06:46:49;;;;;;;21.95;10.48;;;4.00;99.90;;;;;;5107817;27;20044;-77
2021/01/07 06:49:29;;;;;;;20.58;10.10;;;4.00;99.90;;;;;;5109507;28;20104;-77
2021/01/07 06:52:03;;;;;;;22.50;10.13;;;4.00;99.90;;;;;;5104769;28;20044;-76
2021/01/07 06:54:36;;;;;;;23.75;11.57;;;4.10;99.90;;;;;;5104332;28;20463;-76
2021/01/07 06:57:05;;;;;;;22.95;10.32;;;4.30;99.90;;;;;;5109315;28;20043;-78
2021/01/07 06:59:33;;;;;;;20.95;10.05;;;4.00;99.90;;;;;;5103922;28;20039;-77
2021/01/07 07:02:02;;;;;;;23.25;11.38;;;4.00;99.90;;;;;;5108393;27;20048;-77
2021/01/07 07:04:30;;;;;;;23.50;11.02;;;4.00;99.90;;;;;;5108254;28;20052;-78
2021/01/07 07:07:21;;;;;;;24.80;10.77;;;4.10;99.90;;;;;;5107973;27;20376;-78
2021/01/07 07:10:12;;;;;;;25.50;10.98;;;4.00;99.90;;;;;;5106190;28;20052;-77
2021/01/07 07:12:41;;;;;;;26.65;11.00;;;4.10;99.90;;;;;;5104222;28;20047;-77
2021/01/07 07:15:12;;;;;;;24.45;11.35;;;4.20;99.90;;;;;;5105712;28;20050;-75
2021/01/07 07:17:40;;;;;;;27.25;11.43;;;4.00;99.90;;;;;;5111349;28;20052;-79
2021/01/07 07:20:07;;;;;;;27.27;11.95;;;4.00;99.90;;;;;;5104413;28;20456;-77
2021/01/07 07:22:42;;;;;;;27.63;11.40;;;4.00;99.90;;;;;;5105614;28;20471;-77
2021/01/07 07:25:09;;;;;;;23.05;10.95;;;3.90;99.90;;;;;;5107043;28;20135;-77
2021/01/07 07:28:06;;;;;;;23.52;10.85;;;3.90;99.90;;;;;;5121724;27;20182;-76
2021/01/07 07:30:33;;;;;;;26.25;11.18;;;4.40;99.90;;;;;;5093949;28;20055;-78
2021/01/07 07:33:01;;;;;;;25.77;10.80;;;4.40;99.90;;;;;;5109335;28;20440;-78
2021/01/07 07:35:31;;;;;;;23.98;10.40;;;4.10;99.90;;;;;;5105297;28;20552;-77
2021/01/07 07:37:58;;;;;;;28.50;11.35;;;4.20;99.90;;;;;;5098503;28;20048;-78
2021/01/07 07:40:24;;;;;;;26.48;11.25;;;4.20;99.90;;;;;;5104923;28;20723;-76
2021/01/07 07:42:52;;;;;;;27.40;12.38;;;4.20;99.90;;;;;;5107343;28;20043;-77
2021/01/07 07:45:30;;;;;;;26.42;12.20;;;4.10;99.90;;;;;;5106422;28;20048;-80
2021/01/07 07:47:58;;;;;;;26.95;12.35;;;4.30;99.90;;;;;;5107810;28;20044;-80
2021/01/07 07:50:29;;;;;;;25.05;11.00;;;4.20;99.90;;;;;;5109848;28;20497;-75
2021/01/07 07:53:07;;;;;;;28.10;10.75;;;4.00;99.90;;;;;;5108325;28;20054;-77
2021/01/07 07:55:35;;;;;;;23.40;11.07;;;4.00;99.90;;;;;;5105202;28;20056;-77
2021/01/07 07:58:09;;;;;;;24.02;10.60;;;3.90;99.90;;;;;;5108117;28;20096;-79
2021/01/07 08:00:37;;;;;;;24.08;10.23;;;4.20;99.90;;;;;;5105974;28;20040;-77
2021/01/07 08:03:03;;;;;;;23.63;10.55;;;4.00;99.90;;;;;;5109596;28;20088;-78
2021/01/07 08:05:32;;;;;;;20.25;9.60;;;4.10;99.90;;;;;;5109490;28;20446;-80
2021/01/07 08:07:59;;;;;;;23.80;10.60;;;4.10;99.90;;;;;;5103634;28;20444;-77
2021/01/07 08:10:26;;;;;;;23.88;10.38;;;4.10;99.90;;;;;;5106576;28;20532;-75
2021/01/07 08:12:54;;;;;;;25.50;10.57;;;4.10;99.90;;;;;;5109455;28;20044;-78
2021/01/07 08:15:31;;;;;;;23.02;9.75;;;4.40;99.90;;;;;;5103063;28;20422;-77
2021/01/07 08:18:20;;;;;;;26.42;11.23;;;4.40;99.90;;;;;;5110879;28;20043;-74
2021/01/07 08:20:48;;;;;;;23.65;11.52;;;4.10;99.90;;;;;;5107350;28;20051;-78
2021/01/07 08:23:15;;;;;;;22.92;11.52;;;4.20;99.90;;;;;;5103405;28;20555;-77
2021/01/07 08:25:50;;;;;;;25.15;12.30;;;3.90;99.90;;;;;;5109123;28;20120;-78
2021/01/07 08:28:43;;;;;;;29.73;13.05;;;4.40;99.90;;;;;;5105240;28;20103;-80
2021/01/07 08:31:15;;;;;;;29.13;11.50;;;4.10;99.90;;;;;;5094985;28;20043;-78
2021/01/07 08:33:42;;;;;;;27.58;11.30;;;4.70;99.90;;;;;;5110519;28;20056;-78
2021/01/07 08:36:12;;;;;;;24.10;11.48;;;4.30;99.90;;;;;;5103723;28;20048;-77
2021/01/07 08:38:39;;;;;;;22.38;9.80;;;4.30;99.90;;;;;;5102781;28;20543;-79
2021/01/07 08:41:20;;;;;;;23.58;10.70;;;4.10;99.90;;;;;;5104801;28;20048;-76
2021/01/07 08:43:48;;;;;;;30.30;13.52;;;3.90;99.90;;;;;;5104577;28;20051;-78
2021/01/07 08:46:24;;;;;;;27.30;10.60;;;4.20;99.90;;;;;;5104096;28;20445;-77
2021/01/07 08:49:06;;;;;;;29.45;12.50;;;4.10;99.90;;;;;;5106545;28;20098;-78
2021/01/07 08:51:46;;;;;;;27.05;10.70;;;4.20;99.90;;;;;;5105955;28;20048;-77
2021/01/07 08:54:15;;;;;;;33.00;12.98;;;3.90;99.90;;;;;;5107397;28;20437;-79
2021/01/07 08:56:43;;;;;;;30.75;13.60;;;3.90;99.90;;;;;;5104919;28;20048;-78
2021/01/07 08:59:31;;;;;;;28.40;12.73;;;3.90;99.90;;;;;;5109171;28;20059;-78
2021/01/07 09:02:04;;;;;;;27.23;11.15;;;4.10;99.90;;;;;;5102550;28;20043;-78
2021/01/07 09:04:37;;;;;;;24.73;10.80;;;4.10;99.90;;;;;;5109518;28;20074;-79
2021/01/07 09:07:15;;;;;;;28.42;10.93;;;4.10;99.90;;;;;;5104767;28;20054;-77
2021/01/07 09:09:49;;;;;;;24.17;10.55;;;4.30;99.90;;;;;;5112027;27;20075;-78
2021/01/07 09:12:21;;;;;;;19.85;9.13;;;4.40;99.90;;;;;;5110111;28;20046;-78
2021/01/07 09:15:09;;;;;;;23.70;10.30;;;4.40;99.90;;;;;;5111390;27;20045;-77
2021/01/07 09:17:57;;;;;;;22.60;10.90;;;4.10;99.90;;;;;;5105598;28;20073;-77
2021/01/07 09:20:32;;;;;;;22.77;9.80;;;4.20;99.90;;;;;;5098890;28;20052;-78
2021/01/07 09:23:25;;;;;;;20.10;9.05;;;4.40;99.90;;;;;;5107909;27;20059;-79
2021/01/07 09:25:52;;;;;;;21.52;9.70;;;4.20;99.90;;;;;;5101318;28;21016;-75
2021/01/07 09:28:18;;;;;;;20.70;9.35;;;4.20;99.90;;;;;;5106948;28;20058;-78
2021/01/07 09:30:45;;;;;;;22.00;9.77;;;4.40;99.90;;;;;;5098769;28;20059;-78
2021/01/07 09:33:12;;;;;;;13.45;6.68;;;4.30;99.90;;;;;;5101479;28;20040;-77
2021/01/07 09:35:39;;;;;;;23.55;9.43;;;4.40;99.90;;;;;;5103270;27;20505;-77
2021/01/07 09:38:06;;;;;;;22.05;9.55;;;4.30;99.90;;;;;;5104943;28;20043;-77
2021/01/07 09:40:32;;;;;;;20.70;7.93;;;4.20;99.90;;;;;;5107933;28;20048;-76
2021/01/07 09:42:58;;;;;;;20.65;9.30;;;4.20;99.90;;;;;;5109259;27;20071;-76
2021/01/07 09:45:25;;;;;;;23.75;9.75;;;4.20;99.90;;;;;;5104558;28;20070;-75
2021/01/07 09:47:51;;;;;;;22.13;9.68;;;4.50;99.90;;;;;;5101467;28;20058;-76
2021/01/07 09:50:20;;;;;;;19.85;8.82;;;4.30;99.90;;;;;;5089849;28;20051;-74
2021/01/07 09:52:46;;;;;;;22.92;10.02;;;4.30;99.90;;;;;;5095515;28;21080;-77
2021/01/07 09:55:16;;;;;;;24.13;9.63;;;4.40;99.90;;;;;;5088127;28;20077;-74
2021/01/07 09:57:48;;;;;;;24.33;11.20;;;4.30;99.90;;;;;;5091685;28;20093;-78
2021/01/07 10:00:15;;;;;;;21.52;9.50;;;4.30;99.90;;;;;;5097855;28;20051;-74
2021/01/07 10:02:42;;;;;;;20.20;10.05;;;4.30;99.90;;;;;;5090753;27;20150;-77
2021/01/07 10:05:10;;;;;;;22.92;10.02;;;4.40;99.90;;;;;;5090466;28;20083;-78
2021/01/07 10:07:38;;;;;;;24.85;11.20;;;4.30;99.90;;;;;;5096631;28;20108;-79
2021/01/07 10:10:05;;;;;;;27.08;10.55;;;4.50;99.90;;;;;;5099151;28;20402;-79
2021/01/07 10:12:32;;;;;;;23.13;9.60;;;4.30;99.90;;;;;;5096940;28;20048;-77
2021/01/07 10:14:58;;;;;;;22.63;9.25;;;4.60;99.90;;;;;;5100121;28;20051;-79
2021/01/07 10:17:29;;;;;;;21.88;9.35;;;4.60;99.90;;;;;;5098608;28;20601;-79
2021/01/07 10:20:21;;;;;;;25.33;10.10;;;4.60;99.90;;;;;;5082383;27;20158;-77
2021/01/07 10:22:51;;;;;;;21.08;9.15;;;4.40;99.90;;;;;;5087250;28;20074;-78
2021/01/07 10:25:18;;;;;;;22.35;10.15;;;4.70;99.90;;;;;;5107564;27;20051;-80
2021/01/07 10:27:46;;;;;;;22.13;8.75;;;4.40;99.90;;;;;;5090602;28;20507;-78
2021/01/07 10:30:13;;;;;;;20.90;9.40;;;4.40;99.90;;;;;;5091359;28;20131;-78
2021/01/07 10:32:39;;;;;;;23.20;9.55;;;4.70;99.90;;;;;;5099906;28;20159;-77
2021/01/07 10:35:07;;;;;;;22.10;9.52;;;4.50;99.90;;;;;;5098633;28;20138;-80
2021/01/07 10:37:38;;;;;;;24.15;10.32;;;4.40;99.90;;;;;;5088894;28;20058;-78
2021/01/07 10:40:06;;;;;;;26.77;11.38;;;4.40;99.90;;;;;;5095006;28;20056;-76
2021/01/07 10:42:32;;;;;;;26.60;11.68;;;4.40;99.90;;;;;;5103661;27;20388;-77
2021/01/07 10:45:00;;;;;;;28.08;10.90;;;4.40;99.90;;;;;;5092874;28;20467;-78
2021/01/07 10:47:32;;;;;;;28.50;10.57;;;4.80;99.90;;;;;;5089624;28;20059;-76
2021/01/07 10:50:03;;;;;;;21.88;9.32;;;4.40;99.90;;;;;;5086044;28;20067;-77
2021/01/07 10:52:34;;;;;;;24.60;10.43;;;4.50;99.90;;;;;;5088086;28;20167;-77
2021/01/07 10:55:24;;;;;;;;;;;4.40;99.90;;;;;;5086535;28;20097;-76
2021/01/07 10:58:04;;;;;;;23.05;9.57;;;4.60;99.90;;;;;;5094526;28;19927;-78
2021/01/07 11:01:12;;;;;;;25.17;10.98;;;4.50;99.90;;;;;;5087510;28;20106;-78
2021/01/07 11:04:06;;;;;;;26.80;10.30;;;4.60;99.90;;;;;;5057342;27;20056;-77
2021/01/07 11:06:43;;;;;;;26.40;10.93;;;4.60;99.90;;;;;;5104085;27;20451;-78
2021/01/07 11:09:14;;;;;;;27.40;10.73;;;4.80;99.90;;;;;;5086869;28;20048;-78
2021/01/07 11:11:55;;;;;;;32.30;11.88;;;4.50;99.90;;;;;;5088688;28;20055;-77
2021/01/07 11:14:51;;;;;;;21.55;9.73;;;4.60;99.90;;;;;;5087391;28;20093;-76
2021/01/07 11:17:24;;;;;;;23.75;11.02;;;4.60;99.90;;;;;;5081284;28;20162;-78
2021/01/07 11:19:52;;;;;;;23.00;10.20;;;5.00;99.90;;;;;;5078531;28;20059;-77
2021/01/07 11:22:25;;;;;;;23.48;10.07;;;4.80;99.90;;;;;;5094569;28;20048;-77
2021/01/07 11:24:53;;;;;;;19.25;9.13;;;5.00;99.90;;;;;;5086817;28;20052;-78
2021/01/07 11:27:22;;;;;;;18.88;8.35;;;5.00;98.90;;;;;;5086224;28;20052;-78
2021/01/07 11:29:49;;;;;;;20.75;8.95;;;4.80;99.00;;;;;;5082320;28;20139;-79
2021/01/07 11:32:16;;;;;;;22.63;9.65;;;5.00;99.30;;;;;;5085990;28;20044;-76
2021/01/07 11:34:44;;;;;;;23.38;9.25;;;5.10;99.10;;;;;;5095433;28;20100;-78
2021/01/07 11:37:14;;;;;;;20.52;8.45;;;4.80;99.00;;;;;;5086765;28;20060;-77
2021/01/07 11:40:02;;;;;;;17.85;8.00;;;4.80;98.70;;;;;;5093990;28;20052;-79
2021/01/07 11:42:36;;;;;;;21.95;8.55;;;4.70;98.60;;;;;;5093451;28;20055;-79
2021/01/07 11:45:14;;;;;;;24.25;8.25;;;4.80;98.60;;;;;;5094816;28;20532;-76
2021/01/07 11:47:54;;;;;;;20.20;9.10;;;4.80;98.90;;;;;;5078942;28;20101;-78
2021/01/07 11:50:24;;;;;;;22.23;8.18;;;4.90;98.70;;;;;;5077949;28;20558;-79
2021/01/07 11:52:54;;;;;;;19.95;8.25;;;4.90;98.30;;;;;;5086064;28;20617;-78
2021/01/07 11:55:21;;;;;;;22.02;9.05;;;4.90;98.90;;;;;;5103773;27;20055;-78
2021/01/07 11:57:49;;;;;;;21.73;9.02;;;4.80;98.40;;;;;;5086655;28;20117;-77
2021/01/07 12:00:17;;;;;;;19.33;9.15;;;4.90;98.30;;;;;;5092248;28;20059;-76
2021/01/07 12:02:47;;;;;;;21.95;8.82;;;4.90;98.70;;;;;;5068442;28;20051;-75
2021/01/07 12:05:17;;;;;;;23.13;9.73;;;4.80;98.60;;;;;;5088505;28;20055;-76
2021/01/07 12:07:56;;;;;;;;;;;4.90;98.60;;;;;;5090268;28;20081;-77
2021/01/07 12:10:23;;;;;;;20.98;8.32;;;4.90;98.40;;;;;;5091251;28;19963;-78
2021/01/07 12:13:06;;;;;;;22.17;8.77;;;5.00;98.40;;;;;;5083214;28;20075;-76
2021/01/07 12:15:36;;;;;;;16.52;7.82;;;5.20;98.20;;;;;;5083215;28;20128;-79
2021/01/07 12:18:06;;;;;;;19.80;8.85;;;5.00;97.70;;;;;;5086016;28;20093;-78
2021/01/07 12:20:36;;;;;;;18.97;8.40;;;5.10;97.90;;;;;;5093976;28;20090;-77
2021/01/07 12:23:06;;;;;;;16.80;7.57;;;5.20;97.10;;;;;;5087003;28;20436;-79
2021/01/07 12:25:34;;;;;;;17.60;7.65;;;5.00;96.40;;;;;;5095092;28;20048;-76
2021/01/07 12:28:00;;;;;;;16.20;6.57;;;5.10;96.60;;;;;;5094166;28;20048;-78
2021/01/07 12:30:28;;;;;;;14.90;6.30;;;5.00;95.90;;;;;;5075921;28;20214;-77
2021/01/07 12:33:33;;;;;;;16.65;6.57;;;4.90;96.00;;;;;;5087023;28;20052;-77
2021/01/07 12:36:06;;;;;;;14.50;6.00;;;5.00;95.70;;;;;;5088053;28;20484;-79
2021/01/07 12:39:06;;;;;;;15.45;7.13;;;4.90;95.70;;;;;;5087565;28;20050;-80
2021/01/07 12:41:43;;;;;;;14.93;6.18;;;5.10;95.90;;;;;;5077260;27;20044;-78
2021/01/07 12:44:14;;;;;;;16.67;6.82;;;4.90;95.50;;;;;;5088612;28;20575;-76
2021/01/07 12:46:47;;;;;;;14.20;6.53;;;5.00;95.70;;;;;;5094257;28;20448;-77
2021/01/07 12:49:15;;;;;;;16.45;6.85;;;5.10;95.70;;;;;;5090389;28;20051;-78
2021/01/07 12:51:43;;;;;;;15.27;6.57;;;5.00;96.10;;;;;;5105560;27;20055;-78
2021/01/07 12:54:12;;;;;;;14.65;6.43;;;5.10;95.70;;;;;;5105826;27;20455;-79
2021/01/07 12:57:04;;;;;;;15.13;6.05;;;5.20;95.30;;;;;;5107615;28;20056;-78
2021/01/07 12:59:39;;;;;;;17.23;5.90;;;5.00;95.50;;;;;;5103970;28;20069;-79